Terminal Aerodrome Forecast
Issued by NWS

Home | Current Version | Previous Version | Text Only | Print | Product List | Glossary On
Versions: 1 2 3 4 5 6 7 8 9 10 11 12 13 14 15 16 17 18 19 20 21 22 23 24 25 26 27 28 29 30 31
000
FTUS43 KDMX 251138
TAFMCW
TAF
KMCW 251138Z 2512/2612 03016KT 2SM -SN BR BKN007 OVC012
     FM251400 03016G25KT P6SM BKN008 OVC014
     FM251700 02014G24KT P6SM SCT009 OVC017
     FM260500 20007KT P6SM SCT020 BKN150=

USA.gov is the U.S. government's official web portal to all federal, state and local government web resources and services.